createdAt,value
2018-05-09T00:00:04.862Z,58.05
2018-05-09T00:01:05.110Z,57.67
2018-05-09T00:02:05.063Z,57.67
2018-05-09T00:03:05.055Z,58.05
2018-05-09T00:04:05.060Z,58.05
2018-05-09T00:05:05.061Z,58.05
2018-05-09T00:06:05.059Z,58.15
2018-05-09T00:07:05.068Z,58.15
2018-05-09T00:08:04.794Z,58.05
2018-05-09T00:09:04.800Z,57.95
2018-05-09T00:10:05.075Z,58.05
2018-05-09T00:11:04.796Z,58.72
2018-05-09T00:12:05.241Z,58.34
2018-05-09T00:13:04.809Z,58.44
2018-05-09T00:14:04.805Z,58.24
2018-05-09T00:15:05.065Z,58.34
2018-05-09T00:16:04.797Z,58.91
2018-05-09T00:17:05.065Z,59.3
2018-05-09T00:18:05.052Z,59.2
2018-05-09T00:19:04.807Z,59.3
2018-05-09T00:20:04.800Z,58.72
2018-05-09T00:21:05.045Z,59.3
2018-05-09T00:22:04.793Z,59.39
2018-05-09T00:23:05.048Z,59.77
2018-05-09T00:24:05.051Z,59.48
2018-05-09T00:25:05.064Z,59.48
2018-05-09T00:26:05.072Z,59.48
2018-05-09T00:27:04.797Z,59.58
2018-05-09T00:28:04.796Z,59.65
2018-05-09T00:29:05.061Z,59.55
2018-05-09T00:30:04.798Z,59.94
2018-05-09T00:31:04.814Z,60.41
2018-05-09T00:32:04.804Z,60.32
2018-05-09T00:33:04.797Z,60.32
2018-05-09T00:34:05.055Z,60.32
2018-05-09T00:35:05.059Z,60.03
2018-05-09T00:36:05.054Z,60.32
2018-05-09T00:37:05.058Z,60.03
2018-05-09T00:38:05.053Z,60.61
2018-05-09T00:39:04.791Z,60.51
2018-05-09T00:40:04.801Z,60.7
2018-05-09T00:41:04.808Z,60.7
2018-05-09T00:42:05.048Z,60.51
2018-05-09T00:43:05.050Z,60.41
2018-05-09T00:44:04.797Z,60.41
2018-05-09T00:45:05.046Z,60.7
2018-05-09T00:46:04.806Z,61.18
2018-05-09T00:47:04.786Z,61.08
2018-05-09T00:48:05.054Z,60.99
2018-05-09T00:49:05.052Z,60.89
2018-05-09T00:50:04.875Z,61.18
2018-05-09T00:51:05.082Z,61.66
2018-05-09T00:52:05.065Z,61.37
2018-05-09T00:53:04.789Z,62.14
2018-05-09T00:54:05.040Z,62.33
2018-05-09T00:55:04.816Z,62.62
2018-05-09T00:56:05.045Z,62.71
2018-05-09T00:57:05.055Z,62.43
2018-05-09T00:58:04.795Z,61.94
2018-05-09T00:59:04.784Z,62.14
2018-05-09T01:00:05.060Z,62.52
2018-05-09T01:01:04.784Z,62.14
2018-05-09T01:02:05.042Z,62.14
2018-05-09T01:03:05.051Z,62.23
2018-05-09T01:04:05.081Z,62.04
2018-05-09T01:05:04.783Z,62.14
2018-05-09T01:06:05.055Z,62.14
2018-05-09T01:07:04.785Z,62.43
2018-05-09T01:08:04.783Z,62.04
2018-05-09T01:09:05.048Z,62.43
2018-05-09T01:10:05.054Z,61.94
2018-05-09T01:11:04.784Z,62.52
2018-05-09T01:12:04.786Z,62.23
2018-05-09T01:13:05.068Z,62.33
2018-05-09T01:14:05.049Z,62.23
2018-05-09T01:15:05.051Z,62.33
2018-05-09T01:16:05.241Z,62.23
2018-05-09T01:17:04.769Z,62.23
2018-05-09T01:18:05.028Z,62.43
2018-05-09T01:19:04.772Z,62.23
2018-05-09T01:20:05.030Z,62.9
2018-05-09T01:21:04.764Z,62.97
2018-05-09T01:22:04.769Z,63.06
2018-05-09T01:23:05.025Z,63.16
2018-05-09T01:24:05.035Z,63.35
2018-05-09T01:25:05.041Z,63.83
2018-05-09T01:26:04.760Z,63.45
2018-05-09T01:27:04.771Z,63.73
2018-05-09T01:28:04.763Z,63.64
2018-05-09T01:29:05.032Z,64.31
2018-05-09T01:30:04.766Z,64.59
2018-05-09T01:31:04.767Z,64.02
2018-05-09T01:32:04.770Z,64.31
2018-05-09T01:33:05.017Z,64.31
2018-05-09T01:34:05.013Z,64.4
2018-05-09T01:35:05.013Z,64.5
2018-05-09T01:36:05.025Z,64.5
2018-05-09T01:37:04.761Z,64.79
2018-05-09T01:38:05.017Z,64.79
2018-05-09T01:39:05.015Z,65.26
2018-05-09T01:40:04.769Z,64.88
2018-05-09T01:41:05.017Z,64.69
2018-05-09T01:42:05.010Z,64.98
2018-05-09T01:43:04.764Z,65.26
2018-05-09T01:44:04.762Z,65.45
2018-05-09T01:45:04.782Z,66.03
2018-05-09T01:46:04.754Z,65.84
2018-05-09T01:47:05.005Z,65.74
2018-05-09T01:48:04.753Z,65.94
2018-05-09T01:49:05.016Z,65.94
2018-05-09T01:50:04.754Z,65.74
2018-05-09T01:51:05.004Z,65.9
2018-05-09T01:52:04.768Z,66.28
2018-05-09T01:53:05.014Z,66
2018-05-09T01:54:04.756Z,66.47
2018-05-09T01:55:05.076Z,66.96
2018-05-09T01:56:04.754Z,66.76
2018-05-09T01:57:05.009Z,66.38
2018-05-09T01:58:04.996Z,67.05
2018-05-09T01:59:05.005Z,67.43
2018-05-09T02:00:05.001Z,67.53
2018-05-09T02:01:04.755Z,67.34
2018-05-09T02:02:05.006Z,67.63
2018-05-09T02:03:05.010Z,67.72
2018-05-09T02:04:04.998Z,67.05
2018-05-09T02:05:04.995Z,67.14
2018-05-09T02:06:05.088Z,67.82
2018-05-09T02:07:04.737Z,67.82
2018-05-09T02:08:04.740Z,68.29
2018-05-09T02:09:04.756Z,68.1
2018-05-09T02:10:04.990Z,68.29
2018-05-09T02:11:04.987Z,68.29
2018-05-09T02:12:04.739Z,68.49
2018-05-09T02:13:04.991Z,68.1
2018-05-09T02:14:04.742Z,68.01
2018-05-09T02:15:04.996Z,68.29
2018-05-09T02:16:04.731Z,68.49
2018-05-09T02:17:04.988Z,68.58
2018-05-09T02:18:04.730Z,69.15
2018-05-09T02:19:04.743Z,68.87
2018-05-09T02:20:04.727Z,69.15
2018-05-09T02:21:04.996Z,69.02
2018-05-09T02:22:04.730Z,69.41
2018-05-09T02:23:04.730Z,69.44
2018-05-09T02:24:04.775Z,69.41
2018-05-09T02:25:04.723Z,69.6
2018-05-09T02:26:04.993Z,69.21
2018-05-09T02:27:04.988Z,69.89
2018-05-09T02:28:04.990Z,70.17
2018-05-09T02:29:04.994Z,70.17
2018-05-09T02:30:04.725Z,70.17
2018-05-09T02:31:05.154Z,70.27
2018-05-09T02:32:04.989Z,70.07
2018-05-09T02:33:04.715Z,70.36
2018-05-09T02:34:04.720Z,70.84
2018-05-09T02:35:04.980Z,70.36
2018-05-09T02:36:04.801Z,70.46
2018-05-09T02:37:04.968Z,70.27
2018-05-09T02:38:04.979Z,70.07
2018-05-09T02:39:04.723Z,70.07
2018-05-09T02:40:04.996Z,69.98
2018-05-09T02:41:04.975Z,70.27
2018-05-09T02:42:04.967Z,70.11
2018-05-09T02:43:04.706Z,70.17
2018-05-09T02:44:05.059Z,70.07
2018-05-09T02:45:04.967Z,70.56
2018-05-09T02:46:04.968Z,70.84
2018-05-09T02:47:04.973Z,70.75
2018-05-09T02:48:04.960Z,70.94
2018-05-09T02:49:05.026Z,71.32
2018-05-09T02:50:04.700Z,71.7
2018-05-09T02:51:04.971Z,72.28
2018-05-09T02:52:04.706Z,72.08
2018-05-09T02:53:04.700Z,71.99
2018-05-09T02:54:04.971Z,72.28
2018-05-09T02:55:04.962Z,72.28
2018-05-09T02:56:04.957Z,72.56
2018-05-09T02:57:04.951Z,72.08
2018-05-09T02:58:04.697Z,72.75
2018-05-09T02:59:04.704Z,72.56
2018-05-09T03:00:04.960Z,72.37
2018-05-09T03:01:04.961Z,72.66
2018-05-09T03:02:04.947Z,72.18
2018-05-09T03:03:04.950Z,72.28
2018-05-09T03:04:04.695Z,72.18
2018-05-09T03:05:04.686Z,72.08
2018-05-09T03:06:04.954Z,72.47
2018-05-09T03:07:04.945Z,72.37
2018-05-09T03:08:04.688Z,72.28
2018-05-09T03:09:04.946Z,72.47
2018-05-09T03:10:04.954Z,72.75
2018-05-09T03:11:04.695Z,72.85
2018-05-09T03:12:04.950Z,72.94
2018-05-09T03:13:04.947Z,73.14
2018-05-09T03:14:04.931Z,73.14
2018-05-09T03:15:04.673Z,73.04
2018-05-09T03:16:04.697Z,73.23
2018-05-09T03:17:04.673Z,72.94
2018-05-09T03:18:04.689Z,73.23
2018-05-09T03:19:04.922Z,73.33
2018-05-09T03:20:04.917Z,73.33
2018-05-09T03:21:04.674Z,73.43
2018-05-09T03:22:04.664Z,73.61
2018-05-09T03:23:04.918Z,73.61
2018-05-09T03:24:04.920Z,73.67
2018-05-09T03:25:04.916Z,73.71
2018-05-09T03:26:04.918Z,73.71
2018-05-09T03:27:04.658Z,73.67
2018-05-09T03:28:04.652Z,73.39
2018-05-09T03:29:04.910Z,73.67
2018-05-09T03:30:04.652Z,74.24
2018-05-09T03:31:04.659Z,74.05
2018-05-09T03:32:04.906Z,73.86
2018-05-09T03:33:04.652Z,74.15
2018-05-09T03:34:04.660Z,74.34
2018-05-09T03:35:04.649Z,74.63
2018-05-09T03:36:04.662Z,75.01
2018-05-09T03:37:04.896Z,74.82
2018-05-09T03:38:04.904Z,75.1
2018-05-09T03:39:04.643Z,74.91
2018-05-09T03:40:04.639Z,75.3
2018-05-09T03:41:04.644Z,75.2
2018-05-09T03:42:04.905Z,74.91
2018-05-09T03:43:04.893Z,75.2
2018-05-09T03:44:04.638Z,75.3
2018-05-09T03:45:04.638Z,74.82
2018-05-09T03:46:04.903Z,75.2
2018-05-09T03:47:04.891Z,74.91
2018-05-09T03:48:04.884Z,75.3
2018-05-09T03:49:04.627Z,75.01
2018-05-09T03:50:04.629Z,75.2
2018-05-09T03:51:04.649Z,75.59
2018-05-09T03:52:04.887Z,75.39
2018-05-09T03:53:04.894Z,75.59
2018-05-09T03:54:04.881Z,75.78
2018-05-09T03:55:04.624Z,75.49
2018-05-09T03:56:04.880Z,76.06
2018-05-09T03:57:04.878Z,76.25
2018-05-09T03:58:04.615Z,75.87
2018-05-09T03:59:04.884Z,76.06
2018-05-09T04:00:04.868Z,76.25
2018-05-09T04:01:04.617Z,76.16
2018-05-09T04:02:04.876Z,76.16
2018-05-09T04:03:04.860Z,76.35
2018-05-09T04:04:04.605Z,76.16
2018-05-09T04:05:04.867Z,76.54
2018-05-09T04:06:04.601Z,76.54
2018-05-09T04:07:04.860Z,76.82
2018-05-09T04:08:04.600Z,75.78
2018-05-09T04:09:04.605Z,75.96
2018-05-09T04:10:04.851Z,75.81
2018-05-09T04:11:04.979Z,75.62
2018-05-09T04:12:04.848Z,75.91
2018-05-09T04:13:04.675Z,75.81
2018-05-09T04:14:04.885Z,75.52
2018-05-09T04:15:04.618Z,75.43
2018-05-09T04:16:04.856Z,75.62
2018-05-09T04:17:04.852Z,75.05
2018-05-09T04:18:04.841Z,74.95
2018-05-09T04:19:04.619Z,74.85
2018-05-09T04:20:04.850Z,75.62
2018-05-09T04:21:04.590Z,75.71
2018-05-09T04:22:04.581Z,74.95
2018-05-09T04:23:04.585Z,74.48
2018-05-09T04:24:04.849Z,74.13
2018-05-09T04:25:04.846Z,73.46
2018-05-09T04:26:04.585Z,73.02
2018-05-09T04:27:04.578Z,71.77
2018-05-09T04:28:04.612Z,71.48
2018-05-09T04:29:04.583Z,69.99
2018-05-09T04:30:04.853Z,68.78
2018-05-09T04:31:04.589Z,68.11
2018-05-09T04:32:04.839Z,67.47
2018-05-09T04:33:04.582Z,66.51
2018-05-09T04:34:04.576Z,65.59
2018-05-09T04:35:04.843Z,64.43
2018-05-09T04:36:04.575Z,63.79
2018-05-09T04:37:04.580Z,62.74
2018-05-09T04:38:04.834Z,62.1
2018-05-09T04:39:04.840Z,61.24
2018-05-09T04:40:04.841Z,60.57
2018-05-09T04:41:04.598Z,60.02
2018-05-09T04:42:04.650Z,58.96
2018-05-09T04:43:04.902Z,58.87
2018-05-09T04:44:04.853Z,58.77
2018-05-09T04:45:04.593Z,58.29
2018-05-09T04:46:04.862Z,57.93
2018-05-09T04:47:04.652Z,57.65
2018-05-09T04:48:04.854Z,57.17
2018-05-09T04:49:04.861Z,56.23
2018-05-09T04:50:04.877Z,55.59
2018-05-09T04:51:04.699Z,54.82
2018-05-09T04:52:04.891Z,54.85
2018-05-09T04:53:04.862Z,53.59
2018-05-09T04:54:04.615Z,53.11
2018-05-09T04:55:04.620Z,53.23
2018-05-09T04:56:04.617Z,52.08
2018-05-09T04:57:04.622Z,51.41
2018-05-09T04:58:04.889Z,51.31
2018-05-09T04:59:04.645Z,51.34
2018-05-09T05:00:04.634Z,51.7
2018-05-09T05:01:04.646Z,51.5
2018-05-09T05:02:04.906Z,51.98
2018-05-09T05:03:04.644Z,51.21
2018-05-09T05:04:04.653Z,51.41
2018-05-09T05:05:04.907Z,51.12
2018-05-09T05:06:04.918Z,51.89
2018-05-09T05:07:05.031Z,51.31
2018-05-09T05:08:04.922Z,51.21
2018-05-09T05:09:04.684Z,51.05
2018-05-09T05:10:04.673Z,50.47
2018-05-09T05:11:04.936Z,49.63
2018-05-09T05:12:04.693Z,49.34
2018-05-09T05:13:04.941Z,49.24
2018-05-09T05:14:04.947Z,48.47
2018-05-09T05:15:04.949Z,48.01
2018-05-09T05:16:04.958Z,48.69
2018-05-09T05:17:04.707Z,48.57
2018-05-09T05:18:04.720Z,49.43
2018-05-09T05:19:04.724Z,49.24
2018-05-09T05:20:04.989Z,50.11
2018-05-09T05:21:04.996Z,50.37
2018-05-09T05:22:04.728Z,50.66
2018-05-09T05:23:04.732Z,50.73
2018-05-09T05:24:04.737Z,50.63
2018-05-09T05:25:04.749Z,50.66
2018-05-09T05:26:04.744Z,50.66
2018-05-09T05:27:05.184Z,50.47
2018-05-09T05:28:05.019Z,49.15
2018-05-09T05:29:04.802Z,47.53
2018-05-09T05:30:05.028Z,47.07
2018-05-09T05:31:05.033Z,46.11
2018-05-09T05:32:04.786Z,45.55
2018-05-09T05:33:05.037Z,46.13
2018-05-09T05:34:05.060Z,45.45
2018-05-09T05:35:05.046Z,46.3
2018-05-09T05:36:05.067Z,47.05
2018-05-09T05:37:05.069Z,48.79
2018-05-09T05:38:05.068Z,49.34
2018-05-09T05:39:04.813Z,50.49
2018-05-09T05:40:05.069Z,51.05
2018-05-09T05:41:05.098Z,52.47
2018-05-09T05:42:04.828Z,53.78
2018-05-09T05:43:04.829Z,54.63
2018-05-09T05:44:05.119Z,56.04
2018-05-09T05:45:05.310Z,57.17
2018-05-09T05:46:04.848Z,58.58
2018-05-09T05:47:04.859Z,59.64
2018-05-09T05:48:05.117Z,60.75
2018-05-09T05:49:05.119Z,61.14
2018-05-09T05:50:05.126Z,61.78
2018-05-09T05:51:05.930Z,61.69
2018-05-09T05:52:04.875Z,62.45
2018-05-09T05:53:04.878Z,62.07
2018-05-09T05:54:05.139Z,61.69
2018-05-09T05:55:05.136Z,61.3
2018-05-09T05:56:05.246Z,61.59
2018-05-09T05:57:04.881Z,61.43
2018-05-09T05:58:04.909Z,61.88
2018-05-09T05:59:05.143Z,60.75
2018-05-09T06:00:05.154Z,59.64
2018-05-09T06:01:04.894Z,55.73
2018-05-09T06:02:05.156Z,53.57
2018-05-09T06:03:04.910Z,51.96
2018-05-09T06:04:05.166Z,50.54
2018-05-09T06:05:04.917Z,49.63
2018-05-09T06:06:05.181Z,46.37
2018-05-09T06:07:05.175Z,44.97
2018-05-09T06:08:04.984Z,44.12
2018-05-09T06:09:05.209Z,42.89
2018-05-09T06:10:05.199Z,42.04
2018-05-09T06:11:05.198Z,41
2018-05-09T06:12:04.938Z,39.76
2018-05-09T06:13:04.947Z,40.07
2018-05-09T06:23:23.957Z,36.18
2018-05-09T06:24:23.706Z,37.51
2018-05-09T06:25:23.962Z,37.69
2018-05-09T06:26:23.712Z,37.49
2018-05-09T06:27:23.972Z,37.13
2018-05-09T06:28:23.718Z,36.44
2018-05-09T06:29:23.995Z,36.36
2018-05-09T06:30:23.730Z,36.46
2018-05-09T06:31:23.998Z,35.88
2018-05-09T06:32:23.739Z,35.61
2018-05-09T06:33:24.007Z,35.51
2018-05-09T06:34:24.017Z,34.56
2018-05-09T06:35:24.022Z,34.46
2018-05-09T06:36:24.040Z,32.82
2018-05-09T06:37:23.780Z,33.04
2018-05-09T06:38:24.053Z,33.8
2018-05-09T06:39:24.058Z,34.66
2018-05-09T06:40:24.068Z,33.98
2018-05-09T06:41:23.803Z,33.78
2018-05-09T06:42:23.827Z,33.69
2018-05-09T06:43:24.940Z,34.08
2018-05-09T06:44:23.854Z,34.85
2018-05-09T06:45:24.095Z,34.46
2018-05-09T06:46:24.107Z,33.78
2018-05-09T06:47:24.109Z,33.49
2018-05-09T06:48:23.856Z,33.98
2018-05-09T06:49:23.869Z,33.98
2018-05-09T06:50:24.144Z,34.25
2018-05-09T06:51:23.889Z,33.78
2018-05-09T06:52:24.144Z,33.39
2018-05-09T06:53:24.170Z,33.59
2018-05-09T06:54:23.901Z,33.51
2018-05-09T06:55:23.911Z,33.39
2018-05-09T06:56:24.166Z,33.69
2018-05-09T06:57:24.181Z,33.39
2018-05-09T06:58:23.934Z,33.12
2018-05-09T06:59:24.212Z,32.15
2018-05-09T07:00:23.960Z,32.07
2018-05-09T07:01:24.208Z,32.17
2018-05-09T07:02:23.965Z,32.35
2018-05-09T07:03:23.973Z,32.45
2018-05-09T07:04:24.227Z,32.17
2018-05-09T07:05:24.243Z,33.04
2018-05-09T07:06:24.565Z,31.6
2018-05-09T07:07:24.253Z,31.13
2018-05-09T07:08:24.264Z,32.28
2018-05-09T07:09:24.021Z,33.04
2018-05-09T07:10:24.025Z,32.07
2018-05-09T07:11:24.284Z,31.98
2018-05-09T07:12:24.300Z,31.88
2018-05-09T07:13:24.303Z,32.84
2018-05-09T07:14:24.071Z,32.55
2018-05-09T07:15:24.315Z,32.07
2018-05-09T07:16:24.091Z,31.5
2018-05-09T07:17:24.335Z,33.25
2018-05-09T07:18:24.338Z,33.15
2018-05-09T07:19:24.100Z,32.28
2018-05-09T07:20:24.351Z,31.88
2018-05-09T07:21:24.361Z,32.84
2018-05-09T07:22:24.117Z,33.12
2018-05-09T07:23:24.381Z,33.31
2018-05-09T07:24:24.387Z,34.85
2018-05-09T07:25:24.399Z,36.6
2018-05-09T07:26:24.400Z,35.24
2018-05-09T07:27:24.159Z,33.39
2018-05-09T07:28:24.414Z,34.09
2018-05-09T07:29:24.423Z,34.58
2018-05-09T07:30:24.435Z,33.41
2018-05-09T07:31:24.439Z,33.61
2018-05-09T07:32:24.202Z,34.09
2018-05-09T07:33:24.464Z,34.46
2018-05-09T07:34:24.466Z,35.33
2018-05-09T07:35:24.588Z,35.24
2018-05-09T07:36:24.484Z,35.43
2018-05-09T07:37:24.489Z,33.99
2018-05-09T07:38:24.511Z,34.67
2018-05-09T07:39:24.499Z,33.99
2018-05-09T07:40:24.505Z,34.09
2018-05-09T07:41:24.518Z,34.58
2018-05-09T07:42:24.544Z,33.8
2018-05-09T07:43:24.541Z,33.41
2018-05-09T07:44:24.541Z,33.12
2018-05-09T07:45:24.290Z,33.31
2018-05-09T07:46:24.291Z,33.51
2018-05-09T07:47:24.569Z,33.33
2018-05-09T07:48:24.310Z,33.31
2018-05-09T07:49:24.583Z,34.09
2018-05-09T07:50:24.600Z,34.74
2018-05-09T07:51:24.602Z,34.74
2018-05-09T07:52:24.601Z,35.03
2018-05-09T07:53:24.342Z,33.98
2018-05-09T07:54:24.621Z,33.88
2018-05-09T07:55:24.624Z,33.51
2018-05-09T07:56:24.633Z,33.8
2018-05-09T07:57:24.642Z,33.72
2018-05-09T07:58:24.384Z,32.94
2018-05-09T07:59:24.657Z,32.57
2018-05-09T08:00:24.398Z,32.02
2018-05-09T08:01:24.673Z,30.96
2018-05-09T08:02:24.669Z,31.06
2018-05-09T08:03:24.419Z,30.96
2018-05-09T08:04:24.428Z,31.35
2018-05-09T08:05:24.688Z,31.17
2018-05-09T08:06:24.446Z,30.11
2018-05-09T08:07:24.448Z,29.24
2018-05-09T08:08:24.727Z,28.65
2018-05-09T08:09:24.741Z,28.26
2018-05-09T08:10:24.471Z,28.67
2018-05-09T08:11:24.735Z,28.47
2018-05-09T08:12:24.746Z,28.58
2018-05-09T08:13:24.759Z,28.29
2018-05-09T08:14:24.765Z,27.81
2018-05-09T08:15:24.772Z,27.93
2018-05-09T08:16:24.787Z,26.95
2018-05-09T08:17:24.789Z,27.34
2018-05-09T08:18:24.556Z,27.25
2018-05-09T08:19:24.811Z,27.05
2018-05-09T08:20:24.816Z,27.25
2018-05-09T08:21:24.823Z,26.66
2018-05-09T08:22:24.577Z,26.76
2018-05-09T08:23:24.847Z,26.86
2018-05-09T08:24:24.849Z,26.67
2018-05-09T08:25:24.852Z,27.36
2018-05-09T08:26:24.866Z,26.48
2018-05-09T08:27:24.867Z,26.56
2018-05-09T08:28:24.628Z,26.86
2018-05-09T08:29:24.894Z,26.66
2018-05-09T08:30:24.726Z,26.56
2018-05-09T08:31:24.905Z,27.73
2018-05-09T08:32:24.921Z,28.01
2018-05-09T08:33:24.929Z,27.9
2018-05-09T08:34:24.679Z,27.7
2018-05-09T08:35:24.950Z,28.47
2018-05-09T08:36:24.948Z,29.53
2018-05-09T08:37:24.697Z,30.28
2018-05-09T08:38:24.966Z,30.55
2018-05-09T08:39:24.982Z,29.99
2018-05-09T08:40:25.003Z,29.61
2018-05-09T08:41:24.992Z,29.61
2018-05-09T08:42:25.004Z,30.18
2018-05-09T08:43:25.309Z,30.38
2018-05-09T08:44:25.015Z,31.92
2018-05-09T08:45:25.033Z,33.23
2018-05-09T08:46:25.043Z,35.41
2018-05-09T08:47:25.035Z,37.23
2018-05-09T08:48:25.065Z,39.03
2018-05-09T08:49:25.326Z,40.25
2018-05-09T08:50:25.078Z,40.71
2018-05-09T08:51:25.080Z,41.66
2018-05-09T08:52:25.079Z,42.21
2018-05-09T08:53:25.101Z,43.08
2018-05-09T08:54:24.900Z,43.08
2018-05-09T08:55:24.914Z,42.89
2018-05-09T08:56:25.103Z,42.99
2018-05-09T08:57:24.859Z,42.89
2018-05-09T08:58:25.119Z,42.31
2018-05-09T08:59:25.122Z,42.12
2018-05-09T09:00:25.143Z,41.66
2018-05-09T09:01:25.152Z,41.46
2018-05-09T09:02:24.891Z,41
2018-05-09T09:03:25.146Z,41.19
2018-05-09T09:04:25.343Z,41.09
2018-05-09T09:05:24.902Z,41
2018-05-09T09:06:25.336Z,41.09
2018-05-09T09:07:25.170Z,41.29
2018-05-09T09:08:25.183Z,41.56
2018-05-09T09:09:25.191Z,41.75
2018-05-09T09:10:24.933Z,42.45
2018-05-09T09:11:24.940Z,41
2018-05-09T09:12:24.948Z,40.03
2018-05-09T09:13:25.206Z,39.86
2018-05-09T09:14:25.219Z,40.32
2018-05-09T09:15:25.387Z,39.74
2018-05-09T09:16:25.216Z,39.94
2018-05-09T09:17:25.222Z,39.74
2018-05-09T09:18:24.973Z,39.45
2018-05-09T09:19:25.282Z,41
2018-05-09T09:20:24.997Z,41.19
2018-05-09T09:21:25.177Z,40.42
2018-05-09T09:22:25.466Z,39.94
2018-05-09T09:23:25.587Z,40.23
2018-05-09T09:24:25.461Z,39.94
2018-05-09T09:25:25.469Z,41.09
2018-05-09T09:26:25.008Z,39.37
2018-05-09T09:27:25.278Z,40.34
2018-05-09T09:28:25.030Z,39.95
2018-05-09T09:29:25.025Z,41.04
2018-05-09T09:30:25.308Z,40.15
2018-05-09T09:31:25.288Z,39.97
2018-05-09T09:32:25.041Z,41.79
2018-05-09T09:33:25.047Z,40.63
2018-05-09T09:34:25.357Z,41.11
2018-05-09T09:35:25.335Z,41.79
2018-05-09T09:36:25.320Z,40.34
2018-05-09T09:37:25.320Z,39.76
2018-05-09T09:38:25.334Z,39.57
2018-05-09T09:39:25.335Z,39.57
2018-05-09T09:40:25.335Z,39.47
2018-05-09T09:41:25.154Z,38.79
2018-05-09T09:42:25.100Z,38.53
2018-05-09T09:43:25.348Z,38.73
2018-05-09T09:44:25.361Z,38.15
2018-05-09T09:45:25.370Z,37.17
2018-05-09T09:46:25.366Z,38.23
2018-05-09T09:47:25.368Z,38.6
2018-05-09T09:48:25.396Z,39.06
2018-05-09T09:49:25.402Z,38.78
2018-05-09T09:50:25.390Z,39.43
2018-05-09T09:51:25.391Z,39.92
2018-05-09T09:52:25.398Z,40.5
2018-05-09T09:53:25.399Z,41.36
2018-05-09T09:54:25.419Z,41.27
2018-05-09T09:55:25.165Z,40.11
2018-05-09T09:56:25.414Z,39.92
2018-05-09T09:57:25.176Z,39.82
2018-05-09T09:58:25.428Z,39.92
2018-05-09T09:59:25.429Z,40.4
2018-05-09T10:00:25.436Z,41.46
2018-05-09T10:01:25.440Z,41.17
2018-05-09T10:02:25.183Z,40.59
2018-05-09T10:03:25.442Z,41.09
2018-05-09T10:04:26.250Z,39.84
2018-05-09T10:05:25.194Z,40.32
2018-05-09T10:06:25.468Z,40.15
2018-05-09T10:07:25.470Z,39.76
2018-05-09T10:08:25.472Z,39.88
2018-05-09T10:09:25.500Z,39.7
2018-05-09T10:10:25.474Z,38.35
2018-05-09T10:11:25.228Z,38.83
2018-05-09T10:12:25.231Z,39.32
2018-05-09T10:13:25.493Z,40.86
2018-05-09T10:14:25.501Z,42.4
2018-05-09T10:15:25.503Z,40.84
2018-05-09T10:16:25.311Z,41.79
2018-05-09T10:17:25.254Z,40.63
2018-05-09T10:18:25.267Z,40.71
2018-05-09T10:19:25.517Z,41
2018-05-09T10:20:25.271Z,40.73
2018-05-09T10:21:25.273Z,40.81
2018-05-09T10:22:25.547Z,42.52
2018-05-09T10:52:50.565Z,43.08
2018-05-09T10:53:50.788Z,43.08
2018-05-09T10:54:50.860Z,43.28
2018-05-09T10:55:50.768Z,42.41
2018-05-09T10:56:50.780Z,42.7
2018-05-09T10:57:50.768Z,42.5
2018-05-09T10:58:50.767Z,41.75
2018-05-09T10:59:50.783Z,41.36
2018-05-09T11:00:50.859Z,41.19
2018-05-09T11:01:50.797Z,40.81
2018-05-09T11:02:50.516Z,40.34
2018-05-09T11:03:50.785Z,40.15
2018-05-09T11:04:50.800Z,40.15
2018-05-09T11:05:50.535Z,39.95
2018-05-09T11:06:50.828Z,40.44
2018-05-09T11:07:50.792Z,40.83
2018-05-09T11:08:50.541Z,41.67
2018-05-09T11:09:50.818Z,41.39
2018-05-09T11:10:50.805Z,41
2018-05-09T11:11:50.823Z,40.83
2018-05-09T11:12:50.815Z,39.95
2018-05-09T11:13:50.817Z,39.86
2018-05-09T11:14:50.571Z,40.17
2018-05-09T11:15:50.824Z,40.17
2018-05-09T11:16:50.833Z,39.59
2018-05-09T11:17:50.832Z,38.91
2018-05-09T11:18:50.841Z,38.71
2018-05-09T11:19:50.587Z,39.01
2018-05-09T11:20:50.888Z,38.73
2018-05-09T11:21:50.865Z,37.67
2018-05-09T11:22:50.870Z,38.17
2018-05-09T11:23:50.864Z,37.3
2018-05-09T11:24:50.866Z,38.17
2018-05-09T11:25:50.874Z,37.01
2018-05-09T11:26:50.883Z,37.3
2018-05-09T11:27:50.881Z,37.21
2018-05-09T11:28:50.899Z,38.17
2018-05-09T11:29:50.641Z,38.27
2018-05-09T11:30:50.945Z,38.54
2018-05-09T11:31:50.916Z,38.45
2018-05-09T11:32:50.660Z,38.35
2018-05-09T11:33:50.658Z,38.25
2018-05-09T11:34:50.919Z,38.54
2018-05-09T11:35:51.017Z,38.25
2018-05-09T11:36:50.936Z,37.4
2018-05-09T11:37:50.675Z,37.49
2018-05-09T11:38:50.690Z,37.69
2018-05-09T11:39:50.947Z,37.21
2018-05-09T11:40:50.718Z,37.11
2018-05-09T11:41:50.959Z,37.57
2018-05-09T11:42:50.969Z,38.35
2018-05-09T11:43:50.856Z,37.28
2018-05-09T11:44:50.775Z,36.99
2018-05-09T11:45:50.996Z,37.38
2018-05-09T11:46:50.728Z,37.28
2018-05-09T11:47:50.981Z,37.09
2018-05-09T11:48:51.008Z,37.19
2018-05-09T11:49:50.749Z,37.28
2018-05-09T11:50:51.009Z,37.19
2018-05-09T11:51:50.772Z,37.19
2018-05-09T11:52:50.757Z,36.9
2018-05-09T11:53:51.018Z,36.7
2018-05-09T11:54:51.022Z,36.12
2018-05-09T11:55:51.114Z,35.64
2018-05-09T11:56:51.030Z,35.25
2018-05-09T11:57:51.042Z,35.44
2018-05-09T11:58:51.048Z,35.64
2018-05-09T11:59:50.792Z,35.35
2018-05-09T12:00:51.088Z,35.44
2018-05-09T12:01:50.813Z,35.93
2018-05-09T12:02:50.814Z,36.6
2018-05-09T12:03:51.082Z,36.78
2018-05-09T12:04:51.076Z,36.68
2018-05-09T12:05:50.893Z,37.15
2018-05-09T12:06:51.096Z,38.12
2018-05-09T12:07:51.156Z,38.41
2018-05-09T12:08:50.838Z,39.67
2018-05-09T12:09:50.845Z,40.73
2018-05-09T12:10:51.027Z,41.79
2018-05-09T12:11:50.852Z,42.37
2018-05-09T12:12:50.855Z,42.76
2018-05-09T12:13:51.127Z,42.18
2018-05-09T12:14:50.971Z,42.37
2018-05-09T12:15:51.137Z,42.65
2018-05-09T12:16:50.891Z,42.35
2018-05-09T12:17:51.138Z,42.25
2018-05-09T12:18:51.010Z,42.45
2018-05-09T12:19:50.918Z,42.35
2018-05-09T12:20:51.217Z,41.77
2018-05-09T12:21:51.172Z,41.58
2018-05-09T12:22:51.163Z,41.58
2018-05-09T12:23:50.914Z,41.79
2018-05-09T12:24:51.178Z,42.47
2018-05-09T12:25:51.183Z,41.89
2018-05-09T12:26:51.187Z,42.37
2018-05-09T12:27:50.925Z,42.18
2018-05-09T12:28:51.182Z,42.57
2018-05-09T12:29:51.224Z,42.57
2018-05-09T12:30:51.059Z,41.89
2018-05-09T12:31:51.215Z,42.37
2018-05-09T12:32:51.211Z,41.79
2018-05-09T12:33:51.225Z,41.7
2018-05-09T12:34:51.220Z,40.92
2018-05-09T12:35:51.288Z,40.92
2018-05-09T12:36:51.252Z,40.25
2018-05-09T12:37:51.220Z,39.88
2018-05-09T12:38:51.019Z,39.95
2018-05-09T12:39:51.238Z,40.73
2018-05-09T12:40:51.317Z,40.73
2018-05-09T12:41:51.253Z,40.34
2018-05-09T12:42:52.062Z,40.25
2018-05-09T12:43:51.280Z,40.44
2018-05-09T12:44:51.265Z,40.15
2018-05-09T12:45:51.288Z,40.92
2018-05-09T12:46:51.285Z,40.15
2018-05-09T12:47:51.035Z,40.46
2018-05-09T12:48:51.208Z,41.31
2018-05-09T12:49:51.281Z,41.02
2018-05-09T12:50:51.302Z,43.17
2018-05-09T12:51:51.294Z,42.68
2018-05-09T12:52:51.058Z,41.5
2018-05-09T12:53:51.322Z,40.63
2018-05-09T12:54:51.076Z,41.24
2018-05-09T12:55:51.308Z,42.47
2018-05-09T12:56:51.353Z,40.17
2018-05-09T12:57:51.076Z,39.95
2018-05-09T12:58:51.330Z,40.83
2018-05-09T12:59:51.329Z,39.76
2018-05-09T13:00:51.178Z,40.15
2018-05-09T13:01:51.347Z,39.86
2018-05-09T13:02:51.104Z,39.59
2018-05-09T13:03:51.353Z,39.59
2018-05-09T13:04:51.346Z,39.01
2018-05-09T13:05:51.195Z,38.81
2018-05-09T13:06:51.119Z,38.91
2018-05-09T13:07:51.383Z,39.01
2018-05-09T13:08:51.145Z,39.01
2018-05-09T13:09:51.374Z,39.49
2018-05-09T13:10:51.232Z,39.8
2018-05-09T13:11:51.386Z,38.93
2018-05-09T13:12:51.391Z,38.15
2018-05-09T13:13:51.411Z,38.64
2018-05-09T13:14:51.414Z,38.25
2018-05-09T13:15:51.206Z,38.54
2018-05-09T13:16:51.426Z,38.35
2018-05-09T13:17:51.422Z,38.06
2018-05-09T13:18:51.418Z,38.25
2018-05-09T13:19:51.492Z,37.38
2018-05-09T13:20:51.495Z,37.21
2018-05-09T13:21:51.200Z,37.11
2018-05-09T13:22:51.431Z,37.21
2018-05-09T13:23:51.457Z,36.72
2018-05-09T13:24:51.193Z,36.33
2018-05-09T13:25:51.575Z,36.72
2018-05-09T13:26:51.222Z,37.21
2018-05-09T13:27:51.217Z,36.52
2018-05-09T13:28:51.474Z,36.72
2018-05-09T13:29:51.481Z,37.3
2018-05-09T13:30:51.549Z,37.11
2018-05-09T13:31:51.270Z,37.49
2018-05-09T13:32:51.496Z,37.4
2018-05-09T13:33:51.520Z,37.11